sensor_id;sensor_type;location;lat;lon;timestamp;P1;durP1;ratioP1;P2;durP2;ratioP2
80233;SDS011;69542;42.138;24.742;2023-04-25T10:28:13;4.07;;;3.10;;
80233;SDS011;69542;42.138;24.742;2023-04-25T10:33:40;4.93;;;3.00;;
80233;SDS011;69542;42.138;24.742;2023-04-25T10:36:21;3.80;;;3.00;;
80233;SDS011;69542;42.138;24.742;2023-04-25T10:38:55;4.93;;;3.05;;
80233;SDS011;69542;42.138;24.742;2023-04-25T10:41:53;3.92;;;2.78;;
80233;SDS011;69542;42.138;24.742;2023-04-25T10:44:28;4.03;;;2.70;;
80233;SDS011;69542;42.138;24.742;2023-04-25T10:46:55;3.67;;;2.63;;
80233;SDS011;69542;42.138;24.742;2023-04-25T10:49:29;3.10;;;2.80;;
80233;SDS011;69542;42.138;24.742;2023-04-25T10:54:52;3.00;;;2.80;;
80233;SDS011;69542;42.138;24.742;2023-04-25T10:57:53;3.05;;;2.75;;
80233;SDS011;69542;42.138;24.742;2023-04-25T11:00:16;7.72;;;3.00;;
80233;SDS011;69542;42.138;24.742;2023-04-25T11:02:44;4.07;;;2.70;;
80233;SDS011;69542;42.138;24.742;2023-04-25T11:05:33;3.72;;;2.80;;
80233;SDS011;69542;42.138;24.742;2023-04-25T11:07:59;3.35;;;2.80;;
80233;SDS011;69542;42.138;24.742;2023-04-25T11:12:52;3.10;;;2.80;;
80233;SDS011;69542;42.138;24.742;2023-04-25T11:15:18;3.30;;;2.72;;
80233;SDS011;69542;42.138;24.742;2023-04-25T11:17:44;3.40;;;2.70;;
80233;SDS011;69542;42.138;24.742;2023-04-25T11:20:11;4.90;;;2.80;;
80233;SDS011;69542;42.138;24.742;2023-04-25T11:22:39;3.40;;;2.88;;
80233;SDS011;69542;42.138;24.742;2023-04-25T11:25:09;3.50;;;2.60;;
80233;SDS011;69542;42.138;24.742;2023-04-25T11:27:55;3.00;;;2.70;;
80233;SDS011;69542;42.138;24.742;2023-04-25T11:30:22;3.72;;;2.63;;
80233;SDS011;69542;42.138;24.742;2023-04-25T11:32:49;3.92;;;2.78;;
80233;SDS011;69542;42.138;24.742;2023-04-25T11:35:17;3.28;;;2.70;;
80233;SDS011;69542;42.138;24.742;2023-04-25T11:37:44;2.55;;;2.38;;
80233;SDS011;69542;42.138;24.742;2023-04-25T11:40:10;3.08;;;2.72;;
80233;SDS011;69542;42.138;24.742;2023-04-25T11:42:37;6.43;;;2.88;;
80233;SDS011;69542;42.138;24.742;2023-04-25T11:45:04;4.78;;;2.83;;
80233;SDS011;69542;42.138;24.742;2023-04-25T11:47:30;3.85;;;2.88;;
80233;SDS011;69542;42.138;24.742;2023-04-25T11:49:57;5.20;;;2.90;;
80233;SDS011;69542;42.138;24.742;2023-04-25T11:52:40;5.68;;;2.97;;
80233;SDS011;69542;42.138;24.742;2023-04-25T11:55:18;6.30;;;2.63;;
80233;SDS011;69542;42.138;24.742;2023-04-25T11:57:45;3.38;;;2.40;;
80233;SDS011;69542;42.138;24.742;2023-04-25T12:00:15;4.68;;;2.90;;
80233;SDS011;69542;42.138;24.742;2023-04-25T12:02:55;4.45;;;2.70;;
80233;SDS011;69542;42.138;24.742;2023-04-25T12:05:28;4.50;;;3.00;;
80233;SDS011;69542;42.138;24.742;2023-04-25T12:07:58;5.50;;;3.00;;
80233;SDS011;69542;42.138;24.742;2023-04-25T12:10:36;3.20;;;2.67;;
80233;SDS011;69542;42.138;24.742;2023-04-25T12:13:17;4.38;;;2.70;;
80233;SDS011;69542;42.138;24.742;2023-04-25T12:15:47;5.22;;;2.90;;
80233;SDS011;69542;42.138;24.742;2023-04-25T12:18:14;3.75;;;2.58;;
80233;SDS011;69542;42.138;24.742;2023-04-25T12:20:41;3.40;;;3.00;;
80233;SDS011;69542;42.138;24.742;2023-04-25T12:23:07;3.63;;;2.63;;
80233;SDS011;69542;42.138;24.742;2023-04-25T12:25:43;3.10;;;2.80;;
80233;SDS011;69542;42.138;24.742;2023-04-25T12:30:52;3.53;;;2.88;;
80233;SDS011;69542;42.138;24.742;2023-04-25T12:33:25;3.95;;;2.90;;
80233;SDS011;69542;42.138;24.742;2023-04-25T12:35:52;3.58;;;2.60;;
80233;SDS011;69542;42.138;24.742;2023-04-25T12:38:25;4.90;;;2.95;;
80233;SDS011;69542;42.138;24.742;2023-04-25T12:40:53;4.22;;;2.88;;
80233;SDS011;69542;42.138;24.742;2023-04-25T12:43:19;4.05;;;2.83;;
80233;SDS011;69542;42.138;24.742;2023-04-25T12:45:50;6.25;;;2.53;;
80233;SDS011;69542;42.138;24.742;2023-04-25T12:48:17;4.40;;;2.80;;
80233;SDS011;69542;42.138;24.742;2023-04-25T12:50:43;3.13;;;2.70;;
80233;SDS011;69542;42.138;24.742;2023-04-25T12:53:09;3.38;;;2.70;;
80233;SDS011;69542;42.138;24.742;2023-04-25T12:55:36;3.40;;;2.63;;
80233;SDS011;69542;42.138;24.742;2023-04-25T12:58:02;4.93;;;2.78;;
80233;SDS011;69542;42.138;24.742;2023-04-25T13:00:28;5.28;;;2.95;;
80233;SDS011;69542;42.138;24.742;2023-04-25T13:02:55;3.15;;;2.92;;
80233;SDS011;69542;42.138;24.742;2023-04-25T13:05:21;3.25;;;2.75;;
80233;SDS011;69542;42.138;24.742;2023-04-25T13:07:47;4.07;;;2.72;;
80233;SDS011;69542;42.138;24.742;2023-04-25T13:10:12;5.88;;;2.90;;
80233;SDS011;69542;42.138;24.742;2023-04-25T13:12:38;2.95;;;2.65;;
80233;SDS011;69542;42.138;24.742;2023-04-25T13:15:04;3.60;;;2.80;;
80233;SDS011;69542;42.138;24.742;2023-04-25T13:17:31;6.68;;;2.90;;
80233;SDS011;69542;42.138;24.742;2023-04-25T13:19:57;3.10;;;2.58;;
80233;SDS011;69542;42.138;24.742;2023-04-25T13:22:23;3.70;;;2.70;;
80233;SDS011;69542;42.138;24.742;2023-04-25T13:24:48;5.10;;;2.67;;
80233;SDS011;69542;42.138;24.742;2023-04-25T13:27:14;3.42;;;2.70;;
80233;SDS011;69542;42.138;24.742;2023-04-25T13:29:40;3.25;;;2.65;;
80233;SDS011;69542;42.138;24.742;2023-04-25T13:32:06;2.88;;;2.50;;
80233;SDS011;69542;42.138;24.742;2023-04-25T13:34:32;3.85;;;2.83;;
80233;SDS011;69542;42.138;24.742;2023-04-25T13:36:58;5.15;;;2.60;;
80233;SDS011;69542;42.138;24.742;2023-04-25T13:39:25;3.97;;;2.90;;
80233;SDS011;69542;42.138;24.742;2023-04-25T13:41:51;3.67;;;2.65;;
80233;SDS011;69542;42.138;24.742;2023-04-25T13:44:16;2.67;;;2.47;;
80233;SDS011;69542;42.138;24.742;2023-04-25T13:46:42;3.30;;;2.72;;
80233;SDS011;69542;42.138;24.742;2023-04-25T13:49:08;3.33;;;2.70;;
80233;SDS011;69542;42.138;24.742;2023-04-25T13:51:34;3.53;;;2.90;;
80233;SDS011;69542;42.138;24.742;2023-04-25T13:54:00;3.58;;;2.80;;
80233;SDS011;69542;42.138;24.742;2023-04-25T13:56:25;4.43;;;2.60;;
80233;SDS011;69542;42.138;24.742;2023-04-25T13:58:51;5.80;;;2.60;;
80233;SDS011;69542;42.138;24.742;2023-04-25T14:01:17;5.18;;;2.70;;
80233;SDS011;69542;42.138;24.742;2023-04-25T14:03:44;4.20;;;2.40;;
80233;SDS011;69542;42.138;24.742;2023-04-25T14:06:10;2.80;;;2.60;;
80233;SDS011;69542;42.138;24.742;2023-04-25T14:08:37;2.97;;;2.45;;
80233;SDS011;69542;42.138;24.742;2023-04-25T14:11:03;2.85;;;2.53;;
80233;SDS011;69542;42.138;24.742;2023-04-25T14:13:29;3.63;;;2.60;;
80233;SDS011;69542;42.138;24.742;2023-04-25T14:15:55;2.90;;;2.70;;
80233;SDS011;69542;42.138;24.742;2023-04-25T14:18:21;2.83;;;2.50;;
80233;SDS011;69542;42.138;24.742;2023-04-25T14:20:47;2.92;;;2.63;;
80233;SDS011;69542;42.138;24.742;2023-04-25T14:23:13;3.03;;;2.70;;
80233;SDS011;69542;42.138;24.742;2023-04-25T14:25:39;2.67;;;2.47;;
80233;SDS011;69542;42.138;24.742;2023-04-25T14:28:06;3.38;;;2.40;;
80233;SDS011;69542;42.138;24.742;2023-04-25T14:30:32;3.45;;;2.50;;
80233;SDS011;69542;42.138;24.742;2023-04-25T14:32:58;2.83;;;2.40;;
80233;SDS011;69542;42.138;24.742;2023-04-25T14:35:24;2.83;;;2.40;;
80233;SDS011;69542;42.138;24.742;2023-04-25T14:37:50;3.15;;;2.70;;
80233;SDS011;69542;42.138;24.742;2023-04-25T14:40:16;3.15;;;2.50;;
80233;SDS011;69542;42.138;24.742;2023-04-25T14:42:42;3.17;;;2.70;;
80233;SDS011;69542;42.138;24.742;2023-04-25T14:45:08;3.00;;;2.63;;
80233;SDS011;69542;42.138;24.742;2023-04-25T14:47:34;3.80;;;2.47;;
80233;SDS011;69542;42.138;24.742;2023-04-25T14:50:01;3.15;;;2.60;;
80233;SDS011;69542;42.138;24.742;2023-04-25T14:52:27;4.82;;;2.55;;
80233;SDS011;69542;42.138;24.742;2023-04-25T14:54:53;2.80;;;2.60;;
80233;SDS011;69542;42.138;24.742;2023-04-25T14:57:19;3.13;;;2.40;;
80233;SDS011;69542;42.138;24.742;2023-04-25T14:59:45;2.70;;;2.50;;
80233;SDS011;69542;42.138;24.742;2023-04-25T15:02:11;4.25;;;2.67;;
80233;SDS011;69542;42.138;24.742;2023-04-25T15:04:36;4.18;;;2.60;;
80233;SDS011;69542;42.138;24.742;2023-04-25T15:07:02;2.88;;;2.40;;
80233;SDS011;69542;42.138;24.742;2023-04-25T15:09:29;3.88;;;2.47;;
80233;SDS011;69542;42.138;24.742;2023-04-25T15:11:54;6.03;;;2.55;;
80233;SDS011;69542;42.138;24.742;2023-04-25T15:14:20;2.50;;;2.17;;
80233;SDS011;69542;42.138;24.742;2023-04-25T15:16:46;2.67;;;2.20;;
80233;SDS011;69542;42.138;24.742;2023-04-25T15:19:12;2.67;;;2.42;;
80233;SDS011;69542;42.138;24.742;2023-04-25T15:21:38;5.10;;;2.40;;
80233;SDS011;69542;42.138;24.742;2023-04-25T15:24:04;3.25;;;2.28;;
80233;SDS011;69542;42.138;24.742;2023-04-25T15:26:30;2.50;;;2.30;;
80233;SDS011;69542;42.138;24.742;2023-04-25T15:28:56;2.22;;;2.00;;
80233;SDS011;69542;42.138;24.742;2023-04-25T15:31:22;3.88;;;2.25;;
80233;SDS011;69542;42.138;24.742;2023-04-25T15:33:47;2.83;;;2.08;;
80233;SDS011;69542;42.138;24.742;2023-04-25T15:36:13;2.40;;;2.20;;
80233;SDS011;69542;42.138;24.742;2023-04-25T15:38:41;2.80;;;1.92;;
80233;SDS011;69542;42.138;24.742;2023-04-25T15:41:07;2.53;;;2.25;;
80233;SDS011;69542;42.138;24.742;2023-04-25T15:43:33;4.00;;;2.13;;
80233;SDS011;69542;42.138;24.742;2023-04-25T15:46:02;2.30;;;2.00;;
80233;SDS011;69542;42.138;24.742;2023-04-25T15:48:28;4.13;;;2.10;;
80233;SDS011;69542;42.138;24.742;2023-04-25T15:50:54;3.67;;;2.10;;
80233;SDS011;69542;42.138;24.742;2023-04-25T15:53:20;1.98;;;1.88;;
80233;SDS011;69542;42.138;24.742;2023-04-25T15:55:45;3.63;;;1.90;;
80233;SDS011;69542;42.138;24.742;2023-04-25T15:58:11;3.15;;;1.88;;
80233;SDS011;69542;42.138;24.742;2023-04-25T16:00:37;3.22;;;1.90;;
80233;SDS011;69542;42.138;24.742;2023-04-25T16:03:04;2.25;;;1.90;;
80233;SDS011;69542;42.138;24.742;2023-04-25T16:05:30;1.98;;;1.88;;
80233;SDS011;69542;42.138;24.742;2023-04-25T16:07:56;1.88;;;1.65;;
80233;SDS011;69542;42.138;24.742;2023-04-25T16:10:21;2.00;;;1.60;;
80233;SDS011;69542;42.138;24.742;2023-04-25T16:12:47;2.50;;;1.80;;
80233;SDS011;69542;42.138;24.742;2023-04-25T16:15:14;1.70;;;1.60;;
80233;SDS011;69542;42.138;24.742;2023-04-25T16:17:41;2.28;;;1.85;;
80233;SDS011;69542;42.138;24.742;2023-04-25T16:20:06;1.55;;;1.45;;
80233;SDS011;69542;42.138;24.742;2023-04-25T16:22:39;1.75;;;1.65;;
80233;SDS011;69542;42.138;24.742;2023-04-25T16:25:06;1.67;;;1.58;;
80233;SDS011;69542;42.138;24.742;2023-04-25T16:27:33;1.70;;;1.58;;
80233;SDS011;69542;42.138;24.742;2023-04-25T16:29:59;2.15;;;1.60;;
80233;SDS011;69542;42.138;24.742;2023-04-25T16:32:25;1.67;;;1.58;;
80233;SDS011;69542;42.138;24.742;2023-04-25T16:34:51;2.42;;;1.52;;
80233;SDS011;69542;42.138;24.742;2023-04-25T16:37:16;3.70;;;1.65;;
80233;SDS011;69542;42.138;24.742;2023-04-25T16:39:42;1.60;;;1.50;;
80233;SDS011;69542;42.138;24.742;2023-04-25T16:42:08;2.05;;;1.63;;
80233;SDS011;69542;42.138;24.742;2023-04-25T16:44:34;1.98;;;1.55;;
80233;SDS011;69542;42.138;24.742;2023-04-25T16:47:00;1.63;;;1.45;;
80233;SDS011;69542;42.138;24.742;2023-04-25T16:49:26;1.63;;;1.48;;
80233;SDS011;69542;42.138;24.742;2023-04-25T16:51:52;1.63;;;1.52;;
80233;SDS011;69542;42.138;24.742;2023-04-25T16:54:18;2.38;;;1.58;;
80233;SDS011;69542;42.138;24.742;2023-04-25T16:56:43;1.67;;;1.55;;
80233;SDS011;69542;42.138;24.742;2023-04-25T16:59:09;1.90;;;1.80;;
80233;SDS011;69542;42.138;24.742;2023-04-25T17:01:35;1.95;;;1.70;;
80233;SDS011;69542;42.138;24.742;2023-04-25T17:04:01;2.72;;;1.63;;
80233;SDS011;69542;42.138;24.742;2023-04-25T17:06:27;1.77;;;1.67;;
80233;SDS011;69542;42.138;24.742;2023-04-25T17:08:53;1.90;;;1.80;;
80233;SDS011;69542;42.138;24.742;2023-04-25T17:11:19;1.70;;;1.60;;
80233;SDS011;69542;42.138;24.742;2023-04-25T17:13:45;4.00;;;1.50;;
80233;SDS011;69542;42.138;24.742;2023-04-25T17:16:10;2.10;;;1.67;;
80233;SDS011;69542;42.138;24.742;2023-04-25T17:18:40;1.83;;;1.70;;
80233;SDS011;69542;42.138;24.742;2023-04-25T17:21:06;2.15;;;1.75;;
80233;SDS011;69542;42.138;24.742;2023-04-25T17:23:32;1.67;;;1.58;;
80233;SDS011;69542;42.138;24.742;2023-04-25T17:25:58;3.33;;;1.48;;
80233;SDS011;69542;42.138;24.742;2023-04-25T17:28:24;1.70;;;1.60;;
80233;SDS011;69542;42.138;24.742;2023-04-25T17:30:50;1.70;;;1.60;;
80233;SDS011;69542;42.138;24.742;2023-04-25T17:33:15;1.55;;;1.45;;
80233;SDS011;69542;42.138;24.742;2023-04-25T17:35:41;1.88;;;1.42;;
80233;SDS011;69542;42.138;24.742;2023-04-25T17:38:07;1.58;;;1.48;;
80233;SDS011;69542;42.138;24.742;2023-04-25T17:40:32;2.05;;;1.70;;
80233;SDS011;69542;42.138;24.742;2023-04-25T17:42:59;1.70;;;1.60;;
80233;SDS011;69542;42.138;24.742;2023-04-25T17:45:24;1.75;;;1.65;;
80233;SDS011;69542;42.138;24.742;2023-04-25T17:47:50;1.52;;;1.42;;
80233;SDS011;69542;42.138;24.742;2023-04-25T17:50:16;1.70;;;1.60;;
80233;SDS011;69542;42.138;24.742;2023-04-25T17:52:42;1.73;;;1.60;;
80233;SDS011;69542;42.138;24.742;2023-04-25T17:55:09;1.80;;;1.58;;
80233;SDS011;69542;42.138;24.742;2023-04-25T17:57:35;1.40;;;1.30;;
80233;SDS011;69542;42.138;24.742;2023-04-25T18:00:01;1.50;;;1.40;;
80233;SDS011;69542;42.138;24.742;2023-04-25T18:02:28;2.00;;;1.70;;
80233;SDS011;69542;42.138;24.742;2023-04-25T18:04:54;1.58;;;1.48;;
80233;SDS011;69542;42.138;24.742;2023-04-25T18:07:20;1.55;;;1.40;;
80233;SDS011;69542;42.138;24.742;2023-04-25T18:09:46;1.75;;;1.65;;
80233;SDS011;69542;42.138;24.742;2023-04-25T18:12:11;2.53;;;1.80;;
80233;SDS011;69542;42.138;24.742;2023-04-25T18:14:38;1.80;;;1.70;;
80233;SDS011;69542;42.138;24.742;2023-04-25T18:17:05;1.40;;;1.30;;
80233;SDS011;69542;42.138;24.742;2023-04-25T18:19:32;1.50;;;1.40;;
80233;SDS011;69542;42.138;24.742;2023-04-25T18:21:59;1.83;;;1.70;;
80233;SDS011;69542;42.138;24.742;2023-04-25T18:24:25;1.52;;;1.42;;
80233;SDS011;69542;42.138;24.742;2023-04-25T18:26:52;1.35;;;1.25;;
80233;SDS011;69542;42.138;24.742;2023-04-25T18:29:19;1.77;;;1.67;;
80233;SDS011;69542;42.138;24.742;2023-04-25T18:31:45;1.58;;;1.48;;
80233;SDS011;69542;42.138;24.742;2023-04-25T18:34:11;1.45;;;1.35;;
80233;SDS011;69542;42.138;24.742;2023-04-25T18:36:38;1.70;;;1.45;;
80233;SDS011;69542;42.138;24.742;2023-04-25T18:39:04;1.63;;;1.52;;
80233;SDS011;69542;42.138;24.742;2023-04-25T18:41:34;1.60;;;1.50;;
80233;SDS011;69542;42.138;24.742;2023-04-25T18:44:01;1.73;;;1.63;;
80233;SDS011;69542;42.138;24.742;2023-04-25T18:46:29;1.60;;;1.50;;
80233;SDS011;69542;42.138;24.742;2023-04-25T18:48:56;1.70;;;1.60;;
80233;SDS011;69542;42.138;24.742;2023-04-25T18:51:22;1.58;;;1.48;;
80233;SDS011;69542;42.138;24.742;2023-04-25T18:53:53;3.58;;;1.80;;
80233;SDS011;69542;42.138;24.742;2023-04-25T18:56:19;2.00;;;1.70;;
80233;SDS011;69542;42.138;24.742;2023-04-25T18:58:46;1.52;;;1.42;;
80233;SDS011;69542;42.138;24.742;2023-04-25T19:01:13;1.70;;;1.40;;
80233;SDS011;69542;42.138;24.742;2023-04-25T19:03:39;1.90;;;1.70;;
80233;SDS011;69542;42.138;24.742;2023-04-25T19:06:05;2.03;;;1.70;;
80233;SDS011;69542;42.138;24.742;2023-04-25T19:08:31;1.90;;;1.70;;
80233;SDS011;69542;42.138;24.742;2023-04-25T19:10:56;1.80;;;1.70;;
80233;SDS011;69542;42.138;24.742;2023-04-25T19:13:22;1.50;;;1.40;;
80233;SDS011;69542;42.138;24.742;2023-04-25T19:15:48;1.60;;;1.50;;
80233;SDS011;69542;42.138;24.742;2023-04-25T19:18:13;1.70;;;1.60;;
80233;SDS011;69542;42.138;24.742;2023-04-25T19:20:39;1.80;;;1.70;;
80233;SDS011;69542;42.138;24.742;2023-04-25T19:23:05;1.55;;;1.45;;
80233;SDS011;69542;42.138;24.742;2023-04-25T19:25:31;1.95;;;1.40;;
80233;SDS011;69542;42.138;24.742;2023-04-25T19:27:57;1.50;;;1.40;;
80233;SDS011;69542;42.138;24.742;2023-04-25T19:30:24;1.70;;;1.60;;
80233;SDS011;69542;42.138;24.742;2023-04-25T19:32:53;2.00;;;1.80;;
80233;SDS011;69542;42.138;24.742;2023-04-25T19:35:20;1.85;;;1.50;;
80233;SDS011;69542;42.138;24.742;2023-04-25T19:37:46;1.63;;;1.52;;
80233;SDS011;69542;42.138;24.742;2023-04-25T19:40:15;1.60;;;1.50;;
80233;SDS011;69542;42.138;24.742;2023-04-25T19:42:43;1.67;;;1.58;;
80233;SDS011;69542;42.138;24.742;2023-04-25T19:45:09;1.55;;;1.42;;
80233;SDS011;69542;42.138;24.742;2023-04-25T19:47:35;1.70;;;1.60;;
80233;SDS011;69542;42.138;24.742;2023-04-25T19:50:04;1.67;;;1.50;;
80233;SDS011;69542;42.138;24.742;2023-04-25T19:52:32;1.67;;;1.58;;
80233;SDS011;69542;42.138;24.742;2023-04-25T19:55:01;1.70;;;1.60;;
80233;SDS011;69542;42.138;24.742;2023-04-25T19:57:30;1.50;;;1.40;;
80233;SDS011;69542;42.138;24.742;2023-04-25T20:00:01;1.40;;;1.30;;
80233;SDS011;69542;42.138;24.742;2023-04-25T20:02:33;1.60;;;1.50;;
80233;SDS011;69542;42.138;24.742;2023-04-25T20:04:59;1.40;;;1.30;;
80233;SDS011;69542;42.138;24.742;2023-04-25T20:07:26;1.63;;;1.52;;
80233;SDS011;69542;42.138;24.742;2023-04-25T20:09:52;1.70;;;1.60;;
80233;SDS011;69542;42.138;24.742;2023-04-25T20:12:18;1.70;;;1.60;;
80233;SDS011;69542;42.138;24.742;2023-04-25T20:14:44;1.52;;;1.42;;
80233;SDS011;69542;42.138;24.742;2023-04-25T20:17:10;1.58;;;1.48;;
80233;SDS011;69542;42.138;24.742;2023-04-25T20:19:36;1.63;;;1.52;;
80233;SDS011;69542;42.138;24.742;2023-04-25T20:22:02;1.60;;;1.50;;
80233;SDS011;69542;42.138;24.742;2023-04-25T20:24:28;1.40;;;1.30;;
80233;SDS011;69542;42.138;24.742;2023-04-25T20:26:54;1.60;;;1.50;;
80233;SDS011;69542;42.138;24.742;2023-04-25T20:29:23;1.58;;;1.48;;
80233;SDS011;69542;42.138;24.742;2023-04-25T20:31:50;1.50;;;1.40;;
80233;SDS011;69542;42.138;24.742;2023-04-25T20:34:17;1.55;;;1.40;;
80233;SDS011;69542;42.138;24.742;2023-04-25T20:36:43;2.05;;;1.85;;
80233;SDS011;69542;42.138;24.742;2023-04-25T20:39:09;1.63;;;1.52;;
80233;SDS011;69542;42.138;24.742;2023-04-25T20:41:35;1.45;;;1.35;;
80233;SDS011;69542;42.138;24.742;2023-04-25T20:44:01;1.60;;;1.50;;
80233;SDS011;69542;42.138;24.742;2023-04-25T20:46:28;1.60;;;1.50;;
80233;SDS011;69542;42.138;24.742;2023-04-25T20:48:54;1.40;;;1.30;;
80233;SDS011;69542;42.138;24.742;2023-04-25T20:51:21;1.60;;;1.50;;
80233;SDS011;69542;42.138;24.742;2023-04-25T20:53:47;1.73;;;1.63;;
80233;SDS011;69542;42.138;24.742;2023-04-25T20:56:12;1.45;;;1.30;;
80233;SDS011;69542;42.138;24.742;2023-04-25T20:58:39;1.73;;;1.63;;
80233;SDS011;69542;42.138;24.742;2023-04-25T21:01:05;1.80;;;1.50;;
80233;SDS011;69542;42.138;24.742;2023-04-25T21:03:32;1.70;;;1.60;;
80233;SDS011;69542;42.138;24.742;2023-04-25T21:05:59;1.60;;;1.50;;
80233;SDS011;69542;42.138;24.742;2023-04-25T21:08:25;1.50;;;1.40;;
80233;SDS011;69542;42.138;24.742;2023-04-25T21:10:51;1.77;;;1.67;;
80233;SDS011;69542;42.138;24.742;2023-04-25T21:13:17;1.63;;;1.52;;
80233;SDS011;69542;42.138;24.742;2023-04-25T21:15:43;1.70;;;1.60;;
80233;SDS011;69542;42.138;24.742;2023-04-25T21:18:08;1.60;;;1.50;;
80233;SDS011;69542;42.138;24.742;2023-04-25T21:20:34;2.78;;;1.73;;
80233;SDS011;69542;42.138;24.742;2023-04-25T21:23:00;1.52;;;1.42;;
80233;SDS011;69542;42.138;24.742;2023-04-25T21:25:25;1.80;;;1.70;;
80233;SDS011;69542;42.138;24.742;2023-04-25T21:27:58;1.50;;;1.40;;
80233;SDS011;69542;42.138;24.742;2023-04-25T21:30:24;1.70;;;1.55;;
80233;SDS011;69542;42.138;24.742;2023-04-25T21:32:51;1.10;;;1.10;;
80233;SDS011;69542;42.138;24.742;2023-04-25T21:35:17;1.98;;;1.70;;
80233;SDS011;69542;42.138;24.742;2023-04-25T21:37:44;1.63;;;1.52;;
80233;SDS011;69542;42.138;24.742;2023-04-25T21:40:11;1.65;;;1.40;;
80233;SDS011;69542;42.138;24.742;2023-04-25T21:42:38;2.42;;;1.75;;
80233;SDS011;69542;42.138;24.742;2023-04-25T21:45:05;1.67;;;1.58;;
80233;SDS011;69542;42.138;24.742;2023-04-25T21:47:32;1.90;;;1.67;;
80233;SDS011;69542;42.138;24.742;2023-04-25T21:49:58;2.83;;;1.65;;
80233;SDS011;69542;42.138;24.742;2023-04-25T21:52:24;1.50;;;1.40;;
80233;SDS011;69542;42.138;24.742;2023-04-25T21:54:51;1.70;;;1.60;;
80233;SDS011;69542;42.138;24.742;2023-04-25T21:57:17;1.75;;;1.65;;
80233;SDS011;69542;42.138;24.742;2023-04-25T21:59:43;1.38;;;1.27;;
80233;SDS011;69542;42.138;24.742;2023-04-25T22:02:09;1.65;;;1.55;;
80233;SDS011;69542;42.138;24.742;2023-04-25T22:04:35;1.40;;;1.30;;
80233;SDS011;69542;42.138;24.742;2023-04-25T22:07:00;1.60;;;1.50;;
80233;SDS011;69542;42.138;24.742;2023-04-25T22:09:26;1.45;;;1.35;;
80233;SDS011;69542;42.138;24.742;2023-04-25T22:11:52;1.40;;;1.30;;
80233;SDS011;69542;42.138;24.742;2023-04-25T22:14:19;1.33;;;1.23;;
80233;SDS011;69542;42.138;24.742;2023-04-25T22:16:45;1.70;;;1.60;;
80233;SDS011;69542;42.138;24.742;2023-04-25T22:19:11;1.55;;;1.45;;
80233;SDS011;69542;42.138;24.742;2023-04-25T22:21:37;1.48;;;1.30;;
80233;SDS011;69542;42.138;24.742;2023-04-25T22:24:03;1.50;;;1.40;;
80233;SDS011;69542;42.138;24.742;2023-04-25T22:26:30;1.67;;;1.58;;
80233;SDS011;69542;42.138;24.742;2023-04-25T22:28:57;1.67;;;1.58;;
80233;SDS011;69542;42.138;24.742;2023-04-25T22:31:23;1.70;;;1.60;;
80233;SDS011;69542;42.138;24.742;2023-04-25T22:33:48;1.70;;;1.60;;
80233;SDS011;69542;42.138;24.742;2023-04-25T22:36:15;1.48;;;1.38;;
80233;SDS011;69542;42.138;24.742;2023-04-25T22:38:42;1.73;;;1.60;;
80233;SDS011;69542;42.138;24.742;2023-04-25T22:41:08;1.60;;;1.50;;
80233;SDS011;69542;42.138;24.742;2023-04-25T22:43:36;1.40;;;1.30;;
80233;SDS011;69542;42.138;24.742;2023-04-25T22:46:04;1.70;;;1.60;;
80233;SDS011;69542;42.138;24.742;2023-04-25T22:48:30;1.50;;;1.40;;
80233;SDS011;69542;42.138;24.742;2023-04-25T22:51:04;1.65;;;1.50;;
80233;SDS011;69542;42.138;24.742;2023-04-25T22:53:30;1.58;;;1.48;;
80233;SDS011;69542;42.138;24.742;2023-04-25T22:55:58;1.50;;;1.40;;
80233;SDS011;69542;42.138;24.742;2023-04-25T22:58:24;1.90;;;1.60;;
80233;SDS011;69542;42.138;24.742;2023-04-25T23:00:50;2.00;;;1.35;;
80233;SDS011;69542;42.138;24.742;2023-04-25T23:03:17;1.60;;;1.50;;
80233;SDS011;69542;42.138;24.742;2023-04-25T23:05:43;1.60;;;1.50;;
80233;SDS011;69542;42.138;24.742;2023-04-25T23:08:10;1.70;;;1.60;;
80233;SDS011;69542;42.138;24.742;2023-04-25T23:10:36;1.65;;;1.55;;
80233;SDS011;69542;42.138;24.742;2023-04-25T23:13:02;1.60;;;1.50;;
80233;SDS011;69542;42.138;24.742;2023-04-25T23:15:28;1.50;;;1.40;;
80233;SDS011;69542;42.138;24.742;2023-04-25T23:17:55;1.52;;;1.42;;
80233;SDS011;69542;42.138;24.742;2023-04-25T23:20:21;1.73;;;1.63;;
80233;SDS011;69542;42.138;24.742;2023-04-25T23:22:48;1.70;;;1.60;;
80233;SDS011;69542;42.138;24.742;2023-04-25T23:25:14;1.60;;;1.50;;
80233;SDS011;69542;42.138;24.742;2023-04-25T23:27:40;1.67;;;1.58;;
80233;SDS011;69542;42.138;24.742;2023-04-25T23:30:07;1.50;;;1.40;;
80233;SDS011;69542;42.138;24.742;2023-04-25T23:32:34;1.67;;;1.58;;
80233;SDS011;69542;42.138;24.742;2023-04-25T23:35:00;1.70;;;1.60;;
80233;SDS011;69542;42.138;24.742;2023-04-25T23:37:26;1.65;;;1.55;;
80233;SDS011;69542;42.138;24.742;2023-04-25T23:39:51;1.70;;;1.60;;
80233;SDS011;69542;42.138;24.742;2023-04-25T23:42:17;1.60;;;1.50;;
80233;SDS011;69542;42.138;24.742;2023-04-25T23:44:43;1.80;;;1.70;;
80233;SDS011;69542;42.138;24.742;2023-04-25T23:47:09;1.48;;;1.38;;
80233;SDS011;69542;42.138;24.742;2023-04-25T23:49:37;1.60;;;1.50;;
80233;SDS011;69542;42.138;24.742;2023-04-25T23:52:02;1.55;;;1.45;;
80233;SDS011;69542;42.138;24.742;2023-04-25T23:54:29;1.45;;;1.40;;
80233;SDS011;69542;42.138;24.742;2023-04-25T23:56:54;1.52;;;1.42;;
80233;SDS011;69542;42.138;24.742;2023-04-25T23:59:20;1.60;;;1.50;;
